Time;durP1;ratioP1;P1;durP2;ratioP2;P2;SDS_P1;SDS_P2;PMS_P1;PMS_P2;Temp;Humidity;BMP_temperature;BMP_pressure;BME280_temperature;BME280_humidity;BME280_pressure;Samples;Min_cycle;Max_cycle;Signal;HPM_P1;HPM_P2
2021/09/07 00:02:12;;;;;;;19.95;12.15;;;;;;;;;;5096641;28;20028;-92
2021/09/07 00:04:38;;;;;;;20.58;12.63;;;;;;;;;;5097790;28;20020;-92
2021/09/07 00:07:05;;;;;;;21.23;13.68;;;;;;;;;;5096642;28;20414;-92
2021/09/07 00:09:31;;;;;;;27.65;13.90;;;;;;;;;;5097713;28;20039;-91
2021/09/07 00:11:57;;;;;;;30.17;14.15;;;;;;;;;;5096763;28;20052;-93
2021/09/07 00:14:23;;;;;;;25.58;14.73;;;;;;;;;;5098026;28;20082;-93
2021/09/07 00:16:49;;;;;;;24.90;14.63;;;;;;;;;;5096484;28;20066;-94
2021/09/07 00:19:15;;;;;;;29.88;16.00;;;;;;;;;;5096477;28;20051;-93
2021/09/07 00:21:41;;;;;;;27.23;14.45;;;;;;;;;;5097508;28;20028;-92
2021/09/07 00:24:07;;;;;;;28.38;14.15;;;;;;;;;;5096514;28;20029;-92
2021/09/07 00:26:33;;;;;;;29.05;14.70;;;;;;;;;;5100799;28;20026;-92
2021/09/07 00:28:59;;;;;;;24.85;14.07;;;;;;;;;;5101441;28;20032;-92
2021/09/07 00:31:25;;;;;;;31.73;16.60;;;;;;;;;;5101479;28;20338;-91
2021/09/07 00:33:51;;;;;;;37.17;19.17;;;;;;;;;;5100892;28;20358;-92
2021/09/07 00:36:17;;;;;;;33.75;17.30;;;;;;;;;;5100355;28;20406;-90
2021/09/07 00:38:43;;;;;;;30.58;16.98;;;;;;;;;;5101337;28;20111;-91
2021/09/07 00:41:09;;;;;;;23.90;14.57;;;;;;;;;;5100086;28;20028;-89
2021/09/07 00:43:35;;;;;;;22.88;12.98;;;;;;;;;;5101025;28;20065;-90
2021/09/07 00:46:02;;;;;;;20.20;13.30;;;;;;;;;;5101246;28;20314;-90
2021/09/07 00:48:28;;;;;;;16.55;12.27;;;;;;;;;;5101094;28;20024;-93
2021/09/07 00:50:54;;;;;;;20.42;13.20;;;;;;;;;;5101143;28;20025;-91
2021/09/07 00:53:20;;;;;;;21.23;12.52;;;;;;;;;;5100002;28;20028;-92
2021/09/07 00:55:46;;;;;;;20.65;12.20;;;;;;;;;;5099942;28;20032;-93
2021/09/07 00:58:15;;;;;;;20.23;12.85;;;;;;;;;;5101003;28;20032;-93
2021/09/07 01:00:42;;;;;;;22.00;12.20;;;;;;;;;;5099907;28;20032;-89
2021/09/07 01:03:08;;;;;;;21.83;13.38;;;;;;;;;;5100636;28;20028;-90
2021/09/07 01:05:35;;;;;;;18.70;13.63;;;;;;;;;;5101020;28;20028;-89
2021/09/07 01:08:01;;;;;;;23.45;13.55;;;;;;;;;;5100812;28;20410;-90
2021/09/07 01:10:27;;;;;;;24.10;13.75;;;;;;;;;;5099785;28;20115;-92
2021/09/07 01:12:55;;;;;;;22.80;13.13;;;;;;;;;;5100443;28;20024;-94
2021/09/07 01:15:22;;;;;;;19.58;13.48;;;;;;;;;;5100552;28;20028;-92
2021/09/07 01:17:48;;;;;;;23.90;14.02;;;;;;;;;;5100298;28;20123;-93
2021/09/07 01:20:14;;;;;;;25.42;14.18;;;;;;;;;;5100603;28;20020;-91
2021/09/07 01:22:40;;;;;;;20.08;12.73;;;;;;;;;;5100351;28;20024;-91
2021/09/07 01:25:06;;;;;;;23.83;14.98;;;;;;;;;;5100603;28;20016;-92
2021/09/07 01:27:32;;;;;;;19.52;13.63;;;;;;;;;;5100239;28;20062;-91
2021/09/07 01:29:58;;;;;;;19.42;14.45;;;;;;;;;;5100240;28;20046;-92
2021/09/07 01:32:24;;;;;;;21.92;13.57;;;;;;;;;;5099330;28;20020;-90
2021/09/07 01:34:51;;;;;;;22.88;13.30;;;;;;;;;;5100216;28;20028;-89
2021/09/07 01:37:17;;;;;;;19.05;12.95;;;;;;;;;;5098175;28;20016;-89
2021/09/07 01:39:43;;;;;;;20.80;13.00;;;;;;;;;;5100138;28;20024;-89
2021/09/07 01:42:09;;;;;;;17.65;13.15;;;;;;;;;;5098962;28;20043;-90
2021/09/07 01:44:39;;;;;;;20.10;13.27;;;;;;;;;;5099117;28;20023;-89
2021/09/07 01:47:08;;;;;;;25.85;15.52;;;;;;;;;;5099001;28;20024;-92
2021/09/07 01:49:34;;;;;;;28.75;16.05;;;;;;;;;;5100051;28;20028;-91
2021/09/07 01:52:07;;;;;;;26.17;14.75;;;;;;;;;;5099843;28;20356;-90
2021/09/07 01:54:33;;;;;;;26.83;14.15;;;;;;;;;;5099675;28;20402;-90
2021/09/07 01:57:00;;;;;;;24.13;14.82;;;;;;;;;;5099862;28;20433;-90
2021/09/07 01:59:26;;;;;;;19.92;13.98;;;;;;;;;;5099726;28;20322;-92
2021/09/07 02:01:52;;;;;;;21.27;13.18;;;;;;;;;;5099538;28;20394;-90
2021/09/07 02:04:18;;;;;;;19.27;13.45;;;;;;;;;;5098508;28;20030;-91
2021/09/07 02:06:44;;;;;;;16.40;12.30;;;;;;;;;;5099713;28;20020;-91
2021/09/07 02:09:11;;;;;;;19.45;13.05;;;;;;;;;;5099573;28;20027;-91
2021/09/07 02:11:37;;;;;;;21.00;13.68;;;;;;;;;;5099485;28;20024;-89
2021/09/07 02:14:03;;;;;;;19.85;14.15;;;;;;;;;;5099384;28;20115;-91
2021/09/07 02:16:29;;;;;;;18.23;12.90;;;;;;;;;;5099392;28;20040;-90
2021/09/07 02:18:55;;;;;;;21.88;13.85;;;;;;;;;;5098285;28;20090;-89
2021/09/07 02:21:21;;;;;;;21.08;13.35;;;;;;;;;;5099284;28;20030;-90
2021/09/07 02:23:47;;;;;;;16.38;12.60;;;;;;;;;;5098219;28;20012;-90
2021/09/07 02:26:13;;;;;;;20.65;13.63;;;;;;;;;;5099129;28;20020;-92
2021/09/07 02:28:39;;;;;;;21.92;14.43;;;;;;;;;;5099024;28;20111;-90
2021/09/07 02:31:07;;;;;;;20.60;13.75;;;;;;;;;;5098170;28;20326;-90
2021/09/07 02:33:33;;;;;;;18.98;12.93;;;;;;;;;;5099057;28;20024;-90
2021/09/07 02:35:59;;;;;;;20.88;13.90;;;;;;;;;;5098769;28;20047;-90
2021/09/07 02:38:25;;;;;;;23.50;14.05;;;;;;;;;;5098983;28;20047;-90
2021/09/07 02:40:52;;;;;;;16.98;12.13;;;;;;;;;;5097910;28;20027;-93
2021/09/07 02:43:18;;;;;;;23.48;12.70;;;;;;;;;;5097792;28;20418;-92
2021/09/07 02:45:44;;;;;;;17.70;12.07;;;;;;;;;;5097874;28;20418;-92
2021/09/07 02:48:10;;;;;;;22.10;12.73;;;;;;;;;;5098540;28;20044;-92
2021/09/07 02:50:36;;;;;;;23.23;12.60;;;;;;;;;;5097859;28;20027;-94
2021/09/07 02:53:02;;;;;;;21.42;12.18;;;;;;;;;;5097797;28;20122;-95
2021/09/07 02:55:29;;;;;;;17.25;12.20;;;;;;;;;;5098881;28;20099;-94
2021/09/07 02:57:55;;;;;;;18.42;12.10;;;;;;;;;;5097435;28;20126;-93
2021/09/07 03:00:21;;;;;;;18.08;11.40;;;;;;;;;;5097713;28;20402;-93
2021/09/07 03:02:47;;;;;;;16.95;12.05;;;;;;;;;;5098271;28;20031;-93
2021/09/07 03:05:13;;;;;;;17.40;11.75;;;;;;;;;;5098382;28;20028;-93
2021/09/07 03:07:39;;;;;;;17.40;12.48;;;;;;;;;;5098644;28;20024;-92
2021/09/07 03:10:05;;;;;;;15.15;10.90;;;;;;;;;;5098599;28;20021;-92
2021/09/07 03:12:31;;;;;;;18.52;11.85;;;;;;;;;;5097274;28;20551;-91
2021/09/07 03:14:58;;;;;;;23.40;12.15;;;;;;;;;;5098251;28;20047;-93
2021/09/07 03:17:24;;;;;;;18.85;11.68;;;;;;;;;;5097184;28;20036;-93
2021/09/07 03:19:50;;;;;;;18.73;11.85;;;;;;;;;;5097148;28;20040;-93
2021/09/07 03:22:16;;;;;;;19.77;11.27;;;;;;;;;;5098150;28;20505;-94
2021/09/07 03:24:42;;;;;;;25.33;14.38;;;;;;;;;;5097294;28;20351;-94
2021/09/07 03:27:08;;;;;;;25.27;14.45;;;;;;;;;;5098253;28;20402;-94
2021/09/07 03:29:34;;;;;;;24.40;12.98;;;;;;;;;;5098074;28;20024;-92
2021/09/07 03:32:00;;;;;;;22.65;12.98;;;;;;;;;;5097987;28;20034;-92
2021/09/07 03:34:26;;;;;;;20.38;13.77;;;;;;;;;;5096965;28;20410;-90
2021/09/07 03:36:52;;;;;;;20.02;13.18;;;;;;;;;;5096929;28;20066;-90
2021/09/07 03:39:18;;;;;;;21.48;12.70;;;;;;;;;;5097784;28;20032;-81
2021/09/07 03:41:44;;;;;;;17.02;11.95;;;;;;;;;;5094434;28;20070;-82
2021/09/07 03:44:11;;;;;;;16.67;11.05;;;;;;;;;;5087155;28;20047;-82
2021/09/07 03:46:37;;;;;;;18.33;11.77;;;;;;;;;;5087968;28;20031;-83
2021/09/07 03:49:03;;;;;;;14.93;11.07;;;;;;;;;;5077744;28;20047;-83
2021/09/07 03:51:29;;;;;;;17.52;10.70;;;;;;;;;;5082712;28;20099;-83
2021/09/07 03:53:55;;;;;;;16.00;11.32;;;;;;;;;;5096249;28;20035;-83
2021/09/07 03:56:21;;;;;;;20.08;10.95;;;;;;;;;;5083242;28;20511;-82
2021/09/07 03:58:47;;;;;;;13.88;10.88;;;;;;;;;;5096049;28;20036;-83
2021/09/07 04:01:13;;;;;;;14.38;10.35;;;;;;;;;;5100286;28;20044;-83
2021/09/07 04:03:39;;;;;;;13.70;10.35;;;;;;;;;;5101393;28;20066;-82
2021/09/07 04:06:05;;;;;;;16.13;10.80;;;;;;;;;;5101561;28;20030;-81
2021/09/07 04:08:31;;;;;;;21.02;11.77;;;;;;;;;;5101187;28;20020;-82
2021/09/07 04:10:57;;;;;;;21.02;11.32;;;;;;;;;;5101233;28;20029;-82
2021/09/07 04:13:23;;;;;;;17.55;11.20;;;;;;;;;;5101334;28;20033;-82
2021/09/07 04:15:49;;;;;;;17.50;11.25;;;;;;;;;;5101257;28;20063;-83
2021/09/07 04:18:16;;;;;;;16.98;10.90;;;;;;;;;;5101004;28;20055;-83
2021/09/07 04:20:42;;;;;;;18.92;11.43;;;;;;;;;;5099882;28;20028;-83
2021/09/07 04:23:08;;;;;;;16.15;11.32;;;;;;;;;;5101405;28;20041;-83
2021/09/07 04:25:36;;;;;;;15.27;10.95;;;;;;;;;;5101174;28;20130;-83
2021/09/07 04:28:02;;;;;;;16.50;11.27;;;;;;;;;;5099706;28;20151;-83
2021/09/07 04:30:28;;;;;;;15.43;11.30;;;;;;;;;;5100091;28;20020;-83
2021/09/07 04:32:54;;;;;;;15.13;10.25;;;;;;;;;;5099661;28;20036;-83
2021/09/07 04:35:21;;;;;;;25.13;11.40;;;;;;;;;;5100981;28;20016;-83
2021/09/07 04:37:47;;;;;;;17.00;10.55;;;;;;;;;;5100744;28;20051;-82
2021/09/07 04:40:13;;;;;;;18.60;11.35;;;;;;;;;;5100814;28;20031;-83
2021/09/07 04:42:40;;;;;;;14.85;11.07;;;;;;;;;;5100700;28;20115;-83
2021/09/07 04:45:06;;;;;;;21.40;11.68;;;;;;;;;;5100841;28;20028;-82
2021/09/07 04:47:33;;;;;;;17.77;10.82;;;;;;;;;;5083005;28;20028;-83
2021/09/07 04:50:00;;;;;;;17.23;10.57;;;;;;;;;;5079155;28;20029;-82
2021/09/07 04:52:26;;;;;;;21.25;11.90;;;;;;;;;;5080151;28;20042;-82
2021/09/07 04:54:52;;;;;;;15.48;10.75;;;;;;;;;;5079108;28;20028;-82
2021/09/07 04:57:18;;;;;;;19.98;10.93;;;;;;;;;;5080245;28;20024;-82
2021/09/07 04:59:44;;;;;;;18.60;11.52;;;;;;;;;;5080268;28;20032;-84
2021/09/07 05:02:10;;;;;;;19.90;11.52;;;;;;;;;;5079357;28;20475;-86
2021/09/07 05:04:36;;;;;;;18.60;11.43;;;;;;;;;;5080315;28;20303;-85
2021/09/07 05:07:02;;;;;;;18.75;11.70;;;;;;;;;;5080488;28;20108;-88
2021/09/07 05:09:28;;;;;;;16.48;11.05;;;;;;;;;;5080332;28;20020;-85
2021/09/07 05:11:54;;;;;;;17.38;11.02;;;;;;;;;;5080254;28;20415;-87
2021/09/07 05:14:20;;;;;;;16.95;11.30;;;;;;;;;;5079413;28;20428;-85
2021/09/07 05:16:46;;;;;;;21.55;11.57;;;;;;;;;;5080283;28;20041;-86
2021/09/07 05:19:15;;;;;;;18.27;11.35;;;;;;;;;;5079957;28;20048;-87
2021/09/07 05:21:41;;;;;;;19.13;11.82;;;;;;;;;;5079576;28;20432;-87
2021/09/07 05:24:07;;;;;;;16.40;10.90;;;;;;;;;;5080369;28;20032;-87
2021/09/07 05:26:33;;;;;;;16.23;10.73;;;;;;;;;;5078892;28;20025;-87
2021/09/07 05:28:59;;;;;;;15.88;10.88;;;;;;;;;;5079949;28;20036;-86
2021/09/07 05:31:26;;;;;;;21.98;10.73;;;;;;;;;;5079237;28;20056;-87
2021/09/07 05:33:52;;;;;;;15.25;11.52;;;;;;;;;;5079895;28;20026;-87
2021/09/07 05:36:18;;;;;;;19.27;11.38;;;;;;;;;;5079370;28;20032;-87
2021/09/07 05:38:44;;;;;;;17.13;10.15;;;;;;;;;;5079720;28;20029;-86
2021/09/07 05:41:10;;;;;;;13.85;9.55;;;;;;;;;;5078392;28;20032;-87
2021/09/07 05:43:36;;;;;;;19.67;9.85;;;;;;;;;;5079946;28;20406;-88
2021/09/07 05:46:02;;;;;;;15.95;10.00;;;;;;;;;;5079886;28;20025;-87
2021/09/07 05:48:28;;;;;;;17.42;8.80;;;;;;;;;;5079709;28;20021;-87
2021/09/07 05:50:54;;;;;;;15.48;8.68;;;;;;;;;;5078574;28;20117;-85
2021/09/07 05:53:20;;;;;;;15.80;8.02;;;;;;;;;;5079690;28;20154;-84
2021/09/07 05:55:46;;;;;;;18.88;9.25;;;;;;;;;;5079332;28;20021;-89
2021/09/07 05:58:12;;;;;;;13.20;7.35;;;;;;;;;;5078465;28;20033;-88
2021/09/07 06:00:38;;;;;;;12.85;7.65;;;;;;;;;;5078447;28;20025;-86
2021/09/07 06:03:08;;;;;;;14.35;8.10;;;;;;;;;;5078508;28;20033;-88
2021/09/07 06:05:35;;;;;;;11.43;7.38;;;;;;;;;;5078448;28;20410;-88
2021/09/07 06:08:01;;;;;;;13.82;7.53;;;;;;;;;;5078469;28;20037;-88
2021/09/07 06:10:27;;;;;;;16.73;10.95;;;;;;;;;;5078191;28;20028;-87
2021/09/07 06:12:53;;;;;;;15.32;9.85;;;;;;;;;;5077856;28;20044;-86
2021/09/07 06:15:19;;;;;;;18.60;9.05;;;;;;;;;;5077998;28;20032;-87
2021/09/07 06:17:46;;;;;;;15.45;10.73;;;;;;;;;;5078562;28;20055;-86
2021/09/07 06:20:12;;;;;;;30.05;17.85;;;;;;;;;;5077696;28;20435;-89
2021/09/07 06:22:38;;;;;;;23.17;16.00;;;;;;;;;;5078292;28;20112;-87
2021/09/07 06:25:06;;;;;;;23.67;14.98;;;;;;;;;;5079148;28;20020;-85
2021/09/07 06:27:32;;;;;;;22.25;13.35;;;;;;;;;;5078918;28;20024;-84
2021/09/07 06:29:58;;;;;;;21.30;13.00;;;;;;;;;;5078707;28;20051;-87
2021/09/07 06:32:24;;;;;;;23.73;16.40;;;;;;;;;;5077790;28;20055;-85
2021/09/07 06:34:50;;;;;;;14.77;9.68;;;;;;;;;;5077441;28;20032;-85
2021/09/07 06:37:16;;;;;;;17.08;7.28;;;;;;;;;;5078543;28;20056;-85
2021/09/07 06:39:42;;;;;;;14.30;8.50;;;;;;;;;;5077656;28;20036;-85
2021/09/07 06:42:08;;;;;;;12.77;8.50;;;;;;;;;;5077548;28;20024;-86
2021/09/07 06:44:34;;;;;;;12.63;7.20;;;;;;;;;;5077537;28;20016;-85
2021/09/07 06:47:01;;;;;;;11.43;6.85;;;;;;;;;;5077424;28;20029;-88
2021/09/07 06:49:27;;;;;;;15.98;8.65;;;;;;;;;;5077317;28;20075;-85
2021/09/07 06:51:54;;;;;;;11.45;6.97;;;;;;;;;;5078388;28;20315;-86
2021/09/07 06:54:20;;;;;;;8.68;7.00;;;;;;;;;;5077349;28;20028;-86
2021/09/07 06:56:46;;;;;;;13.07;7.53;;;;;;;;;;5077211;28;20032;-86
2021/09/07 06:59:12;;;;;;;12.38;7.00;;;;;;;;;;5078398;28;20032;-86
2021/09/07 07:01:38;;;;;;;11.95;7.13;;;;;;;;;;5078267;28;20307;-86
2021/09/07 07:04:04;;;;;;;10.85;6.30;;;;;;;;;;5077270;28;20052;-86
2021/09/07 07:06:30;;;;;;;18.30;10.15;;;;;;;;;;5076932;28;20055;-85
2021/09/07 07:08:56;;;;;;;33.70;17.10;;;;;;;;;;5078099;28;20049;-86
2021/09/07 07:11:22;;;;;;;10.23;6.03;;;;;;;;;;5078143;28;20017;-86
2021/09/07 07:13:48;;;;;;;10.70;6.90;;;;;;;;;;5077089;28;20020;-86
2021/09/07 07:16:14;;;;;;;12.90;6.30;;;;;;;;;;5077969;28;20099;-85
2021/09/07 07:18:40;;;;;;;12.20;5.78;;;;;;;;;;5077727;28;20074;-85
2021/09/07 07:21:06;;;;;;;10.63;5.22;;;;;;;;;;5078029;28;20055;-85
2021/09/07 07:23:33;;;;;;;10.77;5.47;;;;;;;;;;5076962;28;20028;-85
2021/09/07 07:25:59;;;;;;;8.55;5.68;;;;;;;;;;5077630;28;20029;-86
2021/09/07 07:28:25;;;;;;;14.10;6.38;;;;;;;;;;5076719;28;20054;-85
2021/09/07 07:30:51;;;;;;;10.13;6.07;;;;;;;;;;5077722;28;20021;-85
2021/09/07 07:33:17;;;;;;;10.55;5.70;;;;;;;;;;5077698;28;20024;-85
2021/09/07 07:35:43;;;;;;;12.73;5.53;;;;;;;;;;5076783;28;20025;-85
2021/09/07 07:38:10;;;;;;;13.43;5.82;;;;;;;;;;5077360;28;20120;-86
2021/09/07 07:40:36;;;;;;;8.85;5.50;;;;;;;;;;5077551;28;20025;-86
2021/09/07 07:43:02;;;;;;;8.70;5.13;;;;;;;;;;5077458;28;20116;-85
2021/09/07 07:45:28;;;;;;;10.27;5.78;;;;;;;;;;5076683;28;20024;-85
2021/09/07 07:47:54;;;;;;;11.68;5.35;;;;;;;;;;5076475;28;20028;-85
2021/09/07 07:50:20;;;;;;;8.75;5.40;;;;;;;;;;5077574;28;20028;-86
2021/09/07 07:52:46;;;;;;;11.32;5.13;;;;;;;;;;5076738;28;20326;-85
2021/09/07 07:55:12;;;;;;;11.43;5.20;;;;;;;;;;5077311;28;20024;-85
2021/09/07 07:57:38;;;;;;;12.73;5.35;;;;;;;;;;5077253;28;20116;-85
2021/09/07 08:00:05;;;;;;;15.18;5.90;;;;;;;;;;5077548;28;20149;-85
2021/09/07 08:02:31;;;;;;;20.00;6.57;;;;;;;;;;5077250;28;20048;-85
2021/09/07 08:04:57;;;;;;;10.77;5.53;;;;;;;;;;5077117;28;20055;-78
2021/09/07 08:07:23;;;;;;;9.20;5.55;;;;;;;;;;5075873;28;20067;-78
2021/09/07 08:09:49;;;;;;;10.00;5.38;;;;;;;;;;5076802;28;20032;-78
2021/09/07 08:12:18;;;;;;;11.40;5.32;;;;;;;;;;5076701;28;20422;-78
2021/09/07 08:14:45;;;;;;;11.25;6.60;;;;;;;;;;5075874;28;20029;-78
2021/09/07 08:17:12;;;;;;;15.13;5.78;;;;;;;;;;5076712;28;20108;-78
2021/09/07 08:19:38;;;;;;;15.13;6.40;;;;;;;;;;5076564;28;20075;-78
2021/09/07 08:22:04;;;;;;;10.35;5.60;;;;;;;;;;5076677;28;20028;-78
2021/09/07 08:24:30;;;;;;;8.95;5.32;;;;;;;;;;5075556;28;20322;-78
2021/09/07 08:26:56;;;;;;;8.95;5.57;;;;;;;;;;5076872;28;20017;-78
2021/09/07 08:29:22;;;;;;;15.23;5.38;;;;;;;;;;5076742;28;20036;-78
2021/09/07 08:31:48;;;;;;;15.50;5.70;;;;;;;;;;5075511;28;20028;-78
2021/09/07 08:34:14;;;;;;;16.88;5.40;;;;;;;;;;5076613;28;20021;-78
2021/09/07 08:36:40;;;;;;;13.15;6.18;;;;;;;;;;5076589;28;20322;-78
2021/09/07 08:39:06;;;;;;;12.27;5.47;;;;;;;;;;5076561;28;20482;-78
2021/09/07 08:41:32;;;;;;;17.25;6.07;;;;;;;;;;5076735;28;20036;-78
2021/09/07 08:43:58;;;;;;;13.35;5.80;;;;;;;;;;5076529;28;20048;-78
2021/09/07 08:46:24;;;;;;;19.25;5.88;;;;;;;;;;5077988;28;20040;-78
2021/09/07 08:48:50;;;;;;;12.77;5.82;;;;;;;;;;5080195;28;20141;-78
2021/09/07 08:51:17;;;;;;;10.27;5.50;;;;;;;;;;5078949;28;20149;-80
2021/09/07 08:53:43;;;;;;;9.70;5.10;;;;;;;;;;5080208;28;20021;-80
2021/09/07 08:56:10;;;;;;;14.50;5.82;;;;;;;;;;5078904;28;20045;-80
2021/09/07 08:58:36;;;;;;;12.00;5.88;;;;;;;;;;5078976;28;20426;-80
2021/09/07 09:01:12;;;;;;;9.38;4.70;;;;;;;;;;5079979;28;20025;-81
2021/09/07 09:03:46;;;;;;;11.05;4.97;;;;;;;;;;5079854;28;20032;-79
2021/09/07 09:06:12;;;;;;;10.02;5.00;;;;;;;;;;5078712;28;20056;-80
2021/09/07 09:08:39;;;;;;;12.00;5.85;;;;;;;;;;5080067;28;20021;-80
2021/09/07 09:11:09;;;;;;;11.45;5.25;;;;;;;;;;5079960;28;20036;-80
2021/09/07 09:13:41;;;;;;;15.10;7.25;;;;;;;;;;5078738;28;20291;-79
2021/09/07 09:16:07;;;;;;;7.15;5.35;;;;;;;;;;5079765;28;20034;-78
2021/09/07 09:18:35;;;;;;;11.55;6.53;;;;;;;;;;5079176;28;20048;-79
2021/09/07 09:21:19;;;;;;;10.32;6.38;;;;;;;;;;5079642;28;20369;-79
2021/09/07 09:24:05;;;;;;;10.32;6.45;;;;;;;;;;5079506;28;20149;-79
2021/09/07 09:26:31;;;;;;;8.75;5.43;;;;;;;;;;5079283;28;20107;-79
2021/09/07 09:29:00;;;;;;;11.75;5.70;;;;;;;;;;5079678;28;20441;-80
2021/09/07 09:31:26;;;;;;;9.57;5.43;;;;;;;;;;5078239;28;20033;-79
2021/09/07 09:34:02;;;;;;;10.55;5.00;;;;;;;;;;5079041;28;20320;-79
2021/09/07 09:36:30;;;;;;;9.52;5.05;;;;;;;;;;5079461;28;20107;-80
2021/09/07 09:38:56;;;;;;;7.78;5.57;;;;;;;;;;5079335;28;20052;-80
2021/09/07 09:41:22;;;;;;;13.60;6.70;;;;;;;;;;5078147;28;20032;-79
2021/09/07 09:43:48;;;;;;;10.23;6.53;;;;;;;;;;5079316;28;20056;-80
2021/09/07 09:46:17;;;;;;;9.48;5.63;;;;;;;;;;5079091;28;20020;-79
2021/09/07 09:48:44;;;;;;;8.55;5.25;;;;;;;;;;5079020;28;20021;-79
2021/09/07 09:51:10;;;;;;;8.48;5.78;;;;;;;;;;5079084;28;20024;-79
2021/09/07 09:53:37;;;;;;;9.13;4.85;;;;;;;;;;5077945;28;20322;-79
2021/09/07 09:56:04;;;;;;;7.40;5.05;;;;;;;;;;5078924;28;20149;-80
2021/09/07 09:58:30;;;;;;;10.30;5.00;;;;;;;;;;5077885;28;20098;-79
2021/09/07 10:00:56;;;;;;;9.98;5.05;;;;;;;;;;5077695;28;20028;-79
2021/09/07 10:03:23;;;;;;;8.68;5.32;;;;;;;;;;5077557;28;20036;-80
2021/09/07 10:05:49;;;;;;;8.43;4.85;;;;;;;;;;5079026;28;20264;-79
2021/09/07 10:08:17;;;;;;;13.35;6.68;;;;;;;;;;5077454;28;20119;-80
2021/09/07 10:10:57;;;;;;;7.65;5.50;;;;;;;;;;5078801;28;20020;-79
2021/09/07 10:13:25;;;;;;;10.50;7.40;;;;;;;;;;5078624;28;20056;-79
2021/09/07 10:16:02;;;;;;;10.43;5.60;;;;;;;;;;5077508;28;20036;-80
2021/09/07 10:24:13;;;;;;;9.13;5.75;;;;;;;;;;5078330;28;20029;-80
2021/09/07 10:26:39;;;;;;;11.25;6.28;;;;;;;;;;5078440;28;20034;-80
2021/09/07 10:29:08;;;;;;;12.35;5.80;;;;;;;;;;5078323;28;20449;-80
2021/09/07 10:31:40;;;;;;;10.45;5.47;;;;;;;;;;5078317;28;20025;-79
2021/09/07 10:34:06;;;;;;;9.10;6.32;;;;;;;;;;5078136;28;20016;-80
2021/09/07 10:36:36;;;;;;;12.85;5.85;;;;;;;;;;5076823;28;20438;-80
2021/09/07 10:39:03;;;;;;;9.40;5.25;;;;;;;;;;5078305;28;20032;-79
2021/09/07 10:41:30;;;;;;;11.05;6.25;;;;;;;;;;5076799;28;20483;-80
2021/09/07 10:44:03;;;;;;;18.15;7.13;;;;;;;;;;5078030;28;20020;-79
2021/09/07 10:46:38;;;;;;;8.30;5.57;;;;;;;;;;5077980;28;20024;-79
2021/09/07 10:49:20;;;;;;;10.20;5.72;;;;;;;;;;5077827;28;20025;-79
2021/09/07 10:51:46;;;;;;;;;;;;;;;;;;5078478;28;20299;-79
2021/09/07 10:54:12;;;;;;;14.63;6.97;;;;;;;;;;5077848;28;19911;-79
2021/09/07 10:56:42;;;;;;;14.75;6.00;;;;;;;;;;5076568;28;20036;-79
2021/09/07 10:59:27;;;;;;;8.00;4.88;;;;;;;;;;5078113;28;20047;-79
2021/09/07 11:02:13;;;;;;;6.40;4.97;;;;;;;;;;5076633;28;20028;-79
2021/09/07 11:04:51;;;;;;;9.52;5.43;;;;;;;;;;5077466;28;20311;-79
2021/09/07 11:07:37;;;;;;;7.07;5.45;;;;;;;;;;5077617;28;20028;-79
2021/09/07 11:10:06;;;;;;;10.23;6.10;;;;;;;;;;5077331;28;20025;-79
2021/09/07 11:12:35;;;;;;;8.88;5.63;;;;;;;;;;5077379;28;20436;-79
2021/09/07 11:15:06;;;;;;;10.88;5.15;;;;;;;;;;5077569;28;20043;-79
2021/09/07 11:17:32;;;;;;;7.35;4.72;;;;;;;;;;5076070;28;20032;-79
2021/09/07 11:20:04;;;;;;;8.13;5.68;;;;;;;;;;5077430;28;20024;-80
2021/09/07 11:22:30;;;;;;;;;;;;;;;;;;5077722;28;20031;-81
2021/09/07 11:25:07;;;;;;;14.52;8.63;;;;;;;;;;5076251;28;19918;-80
2021/09/07 11:27:48;;;;;;;11.82;6.95;;;;;;;;;;5077255;28;20070;-79
2021/09/07 11:30:20;;;;;;;15.73;7.60;;;;;;;;;;5077408;28;20048;-80
2021/09/07 11:32:47;;;;;;;12.05;5.60;;;;;;;;;;5077183;28;20288;-79
2021/09/07 11:35:13;;;;;;;11.75;7.15;;;;;;;;;;5076035;28;20028;-79
2021/09/07 11:37:39;;;;;;;11.35;7.60;;;;;;;;;;5076972;28;20070;-79
2021/09/07 11:40:12;;;;;;;8.95;5.35;;;;;;;;;;5076983;28;20034;-79
2021/09/07 11:42:42;;;;;;;8.88;5.93;;;;;;;;;;5077033;28;20060;-79
2021/09/07 11:45:08;;;;;;;10.35;6.32;;;;;;;;;;5075890;28;20028;-80
2021/09/07 11:47:34;;;;;;;10.98;6.30;;;;;;;;;;5076029;28;20024;-80
2021/09/07 11:50:01;;;;;;;13.65;8.02;;;;;;;;;;5076002;28;20460;-80
2021/09/07 11:52:27;;;;;;;9.82;6.50;;;;;;;;;;5075834;28;20036;-79
2021/09/07 11:54:53;;;;;;;13.85;5.90;;;;;;;;;;5076982;28;20021;-80
2021/09/07 11:57:19;;;;;;;11.25;7.35;;;;;;;;;;5075794;28;20342;-79
2021/09/07 12:00:01;;;;;;;9.57;7.05;;;;;;;;;;5077117;28;20036;-80
2021/09/07 12:02:27;;;;;;;;;;;;;;;;;;5077281;28;20028;-80
2021/09/07 12:04:57;;;;;;;10.65;5.53;;;;;;;;;;5076742;28;19916;-79
2021/09/07 12:07:23;;;;;;;15.00;8.15;;;;;;;;;;5076911;28;20311;-79
2021/09/07 12:09:49;;;;;;;12.45;6.70;;;;;;;;;;5075695;28;20133;-79
2021/09/07 12:12:15;;;;;;;9.27;5.03;;;;;;;;;;5076701;28;20036;-80
2021/09/07 12:14:44;;;;;;;14.07;7.18;;;;;;;;;;5076739;28;20024;-80
2021/09/07 12:17:17;;;;;;;11.20;7.07;;;;;;;;;;5076636;28;20035;-80
2021/09/07 12:19:47;;;;;;;10.30;7.10;;;;;;;;;;5075601;28;20053;-79
2021/09/07 12:22:21;;;;;;;7.80;5.00;;;;;;;;;;5079726;28;20071;-79
2021/09/07 12:25:05;;;;;;;11.82;6.65;;;;;;;;;;5080688;28;20295;-79
2021/09/07 12:27:53;;;;;;;16.30;10.57;;;;;;;;;;5080466;28;20036;-79
2021/09/07 12:30:30;;;;;;;13.32;9.30;;;;;;;;;;5079527;28;20048;-79
2021/09/07 12:32:56;;;;;;;29.98;25.30;;;;;;;;;;5079378;28;20480;-80
2021/09/07 12:35:41;;;;;;;15.93;10.73;;;;;;;;;;5080566;28;20040;-80
2021/09/07 12:38:08;;;;;;;12.63;8.35;;;;;;;;;;5080111;28;20056;-79
2021/09/07 12:40:36;;;;;;;15.63;8.45;;;;;;;;;;5080616;28;20070;-79
2021/09/07 12:43:06;;;;;;;10.13;5.03;;;;;;;;;;5079998;28;20025;-80
2021/09/07 12:45:32;;;;;;;17.95;10.60;;;;;;;;;;5079067;28;20025;-79
2021/09/07 12:47:58;;;;;;;19.20;10.60;;;;;;;;;;5080130;28;20028;-79
2021/09/07 12:50:24;;;;;;;16.05;9.65;;;;;;;;;;5080220;28;20111;-79
2021/09/07 12:52:51;;;;;;;13.55;8.25;;;;;;;;;;5079806;28;20028;-79
2021/09/07 12:55:17;;;;;;;15.30;11.10;;;;;;;;;;5078957;28;20032;-79
2021/09/07 12:57:44;;;;;;;16.38;9.90;;;;;;;;;;5079716;28;20441;-79
2021/09/07 13:00:10;;;;;;;15.07;8.88;;;;;;;;;;5078786;28;20036;-79
2021/09/07 13:02:36;;;;;;;13.52;7.68;;;;;;;;;;5079842;28;20024;-79
2021/09/07 13:05:02;;;;;;;15.70;7.88;;;;;;;;;;5078598;28;20029;-79
2021/09/07 13:07:28;;;;;;;14.95;8.38;;;;;;;;;;5079810;28;20017;-79
2021/09/07 13:09:54;;;;;;;19.00;11.40;;;;;;;;;;5079732;28;20028;-80
2021/09/07 13:12:20;;;;;;;14.10;6.78;;;;;;;;;;5079788;28;20210;-80
2021/09/07 13:14:46;;;;;;;11.10;7.20;;;;;;;;;;5079581;28;20098;-80
2021/09/07 13:17:12;;;;;;;10.68;6.55;;;;;;;;;;5079461;28;20028;-80
2021/09/07 13:19:42;;;;;;;14.60;8.57;;;;;;;;;;5078357;28;20055;-80
2021/09/07 13:22:08;;;;;;;24.30;11.18;;;;;;;;;;5079392;28;20314;-79
2021/09/07 13:24:34;;;;;;;19.45;10.13;;;;;;;;;;5078446;28;20349;-80
2021/09/07 13:27:00;;;;;;;19.83;8.63;;;;;;;;;;5079446;28;20055;-80
2021/09/07 13:29:26;;;;;;;12.63;7.53;;;;;;;;;;5079658;28;20028;-80
2021/09/07 13:31:52;;;;;;;8.68;5.07;;;;;;;;;;5078032;28;20040;-82
2021/09/07 13:34:18;;;;;;;15.00;8.80;;;;;;;;;;5077542;28;20449;-82
2021/09/07 13:36:44;;;;;;;10.98;5.70;;;;;;;;;;5078240;28;20045;-82
2021/09/07 13:39:10;;;;;;;7.80;5.40;;;;;;;;;;5079309;28;20040;-82
2021/09/07 13:41:38;;;;;;;11.95;7.22;;;;;;;;;;5079721;28;20028;-92
2021/09/07 13:44:04;;;;;;;17.20;8.48;;;;;;;;;;5080242;28;20031;-93
2021/09/07 13:46:31;;;;;;;15.48;8.75;;;;;;;;;;5079429;28;20020;-77
2021/09/07 13:48:57;;;;;;;12.27;7.13;;;;;;;;;;5079097;28;20021;-77
2021/09/07 13:51:23;;;;;;;16.15;9.32;;;;;;;;;;5079199;28;20028;-77
2021/09/07 13:53:50;;;;;;;21.63;11.02;;;;;;;;;;5078930;28;20024;-76
2021/09/07 13:56:18;;;;;;;17.73;9.57;;;;;;;;;;5078994;28;20025;-76
2021/09/07 13:58:44;;;;;;;8.82;6.63;;;;;;;;;;5078812;28;20035;-77
2021/09/07 14:01:10;;;;;;;14.40;7.13;;;;;;;;;;5078888;28;20070;-77
2021/09/07 14:03:36;;;;;;;11.02;6.10;;;;;;;;;;5078791;28;20020;-77
2021/09/07 14:06:02;;;;;;;10.25;7.95;;;;;;;;;;5078645;28;20302;-77
2021/09/07 14:08:28;;;;;;;10.27;6.85;;;;;;;;;;5078600;28;20319;-77
2021/09/07 14:10:58;;;;;;;12.27;6.20;;;;;;;;;;5078903;28;20025;-76
2021/09/07 14:13:26;;;;;;;8.18;6.18;;;;;;;;;;5078619;28;20429;-77
2021/09/07 14:15:53;;;;;;;12.90;7.00;;;;;;;;;;5078610;28;20070;-77
2021/09/07 14:18:20;;;;;;;11.27;6.18;;;;;;;;;;5078509;28;20099;-76
2021/09/07 14:20:46;;;;;;;10.85;7.32;;;;;;;;;;5078438;28;20021;-77
2021/09/07 14:23:16;;;;;;;14.93;7.65;;;;;;;;;;5078378;28;20151;-77
2021/09/07 14:25:42;;;;;;;13.32;6.45;;;;;;;;;;5078464;28;20019;-76
2021/09/07 14:28:08;;;;;;;12.90;8.93;;;;;;;;;;5078281;28;20383;-76
2021/09/07 14:30:34;;;;;;;12.68;7.10;;;;;;;;;;5078282;28;20417;-76
2021/09/07 14:33:00;;;;;;;10.55;5.90;;;;;;;;;;5078272;28;20407;-76